createdAt,value
2023-03-19T00:00:08.176Z,101423.13
2023-03-19T00:01:11.818Z,101421.47
2023-03-19T00:02:17.863Z,101427.44
2023-03-19T00:03:21.829Z,101420.00
2023-03-19T00:04:24.689Z,101416.72
2023-03-19T00:05:28.250Z,101413.94
2023-03-19T00:06:30.794Z,101406.00
2023-03-19T00:07:34.176Z,101411.16
2023-03-19T00:08:36.966Z,101412.97
2023-03-19T00:09:40.926Z,101408.97
2023-03-19T00:10:43.380Z,101409.94
2023-03-19T00:11:47.106Z,101409.34
2023-03-19T00:12:51.324Z,101408.31
2023-03-19T00:13:54.968Z,101408.78
2023-03-19T00:14:57.505Z,101402.34
2023-03-19T00:16:00.980Z,101412.19
2023-03-19T00:17:04.594Z,101410.91
2023-03-19T00:18:07.888Z,101416.47
2023-03-19T00:19:11.574Z,101412.97
2023-03-19T00:20:15.175Z,101416.63
2023-03-19T00:21:19.123Z,101409.25
2023-03-19T00:22:22.083Z,101413.16
2023-03-19T00:23:25.928Z,101410.78
2023-03-19T00:24:29.163Z,101414.41
2023-03-19T00:25:33.939Z,101416.84
2023-03-19T00:26:37.194Z,101420.13
2023-03-19T00:27:45.732Z,101415.63
2023-03-19T00:28:49.732Z,101423.06
2023-03-19T00:29:53.334Z,101417.88
2023-03-19T00:30:56.491Z,101428.78
2023-03-19T00:32:01.508Z,101422.31
2023-03-19T00:33:04.629Z,101421.88
2023-03-19T00:34:08.560Z,101421.84
2023-03-19T00:35:11.552Z,101420.69
2023-03-19T00:36:16.416Z,101422.22
2023-03-19T00:37:19.282Z,101416.63
2023-03-19T00:38:23.132Z,101423.72
2023-03-19T00:39:25.762Z,101422.72
2023-03-19T00:40:29.929Z,101425.28
2023-03-19T00:41:32.685Z,101425.50
2023-03-19T00:42:36.925Z,101434.66
2023-03-19T00:43:39.925Z,101424.63
2023-03-19T00:44:44.841Z,101428.84
2023-03-19T00:45:48.391Z,101430.38
2023-03-19T00:46:52.520Z,101425.09
2023-03-19T00:47:55.107Z,101426.50
2023-03-19T00:48:59.156Z,101423.63
2023-03-19T00:50:02.451Z,101421.56
2023-03-19T00:51:09.677Z,101425.53
2023-03-19T00:52:12.536Z,101424.38
2023-03-19T00:53:19.558Z,101427.69
2023-03-19T00:54:22.992Z,101425.00
2023-03-19T00:55:27.429Z,101427.25
2023-03-19T00:56:31.599Z,101436.28
2023-03-19T00:57:34.138Z,101432.78
2023-03-19T00:58:38.989Z,101428.09
2023-03-19T00:59:41.504Z,101427.47
2023-03-19T01:00:46.420Z,101436.63
2023-03-19T01:01:49.999Z,101437.53
2023-03-19T01:02:53.309Z,101434.34
2023-03-19T01:03:56.809Z,101433.94
2023-03-19T01:05:00.195Z,101429.03
2023-03-19T01:06:03.727Z,101428.03
2023-03-19T01:07:06.641Z,101430.81
2023-03-19T01:08:10.845Z,101433.97
2023-03-19T01:09:13.297Z,101439.59
2023-03-19T01:10:19.465Z,101440.88
2023-03-19T01:11:21.962Z,101444.84
2023-03-19T01:12:25.577Z,101441.38
2023-03-19T01:13:28.037Z,101445.34
2023-03-19T01:14:32.490Z,101437.94
2023-03-19T01:15:36.805Z,101442.88
2023-03-19T01:16:41.765Z,101443.28
2023-03-19T01:17:44.525Z,101439.03
2023-03-19T01:18:48.361Z,101437.13
2023-03-19T01:19:51.126Z,101437.34
2023-03-19T01:20:54.646Z,101433.06
2023-03-19T01:21:57.079Z,101435.81
2023-03-19T01:23:01.738Z,101446.59
2023-03-19T01:24:04.353Z,101443.94
2023-03-19T01:25:09.124Z,101443.03
2023-03-19T01:26:11.838Z,101446.53
2023-03-19T01:27:15.457Z,101440.06
2023-03-19T01:28:18.269Z,101444.06
2023-03-19T01:29:21.783Z,101447.50
2023-03-19T01:30:24.374Z,101445.28
2023-03-19T01:31:28.001Z,101450.78
2023-03-19T01:32:32.677Z,101447.88
2023-03-19T01:33:37.705Z,101455.63
2023-03-19T01:34:41.301Z,101445.25
2023-03-19T01:35:48.195Z,101454.50
2023-03-19T01:36:50.883Z,101446.69
2023-03-19T01:37:54.416Z,101445.16
2023-03-19T01:38:57.849Z,101450.03
2023-03-19T01:40:01.346Z,101443.06
2023-03-19T01:41:03.971Z,101440.22
2023-03-19T01:42:08.573Z,101443.25
2023-03-19T01:43:17.937Z,101452.22
2023-03-19T01:44:26.817Z,101445.06
2023-03-19T01:45:35.166Z,101444.53
2023-03-19T01:46:40.087Z,101448.81
2023-03-19T01:47:45.285Z,101449.81
2023-03-19T01:48:52.491Z,101451.88
2023-03-19T01:49:56.786Z,101440.78
2023-03-19T01:51:02.877Z,101449.72
2023-03-19T01:52:07.524Z,101454.09
2023-03-19T01:53:13.593Z,101458.59
2023-03-19T01:54:19.916Z,101455.44
2023-03-19T01:55:23.714Z,101450.31
2023-03-19T01:56:32.445Z,101454.75
2023-03-19T01:57:36.679Z,101456.53
2023-03-19T01:58:40.673Z,101452.44
2023-03-19T01:59:47.185Z,101452.22
2023-03-19T02:00:49.890Z,101452.44
2023-03-19T02:01:58.646Z,101456.66
2023-03-19T02:03:03.249Z,101450.56
2023-03-19T02:04:07.758Z,101447.53
2023-03-19T02:05:15.901Z,101462.69
2023-03-19T02:06:22.208Z,101455.16
2023-03-19T02:07:26.695Z,101455.56
2023-03-19T02:08:31.108Z,101454.19
2023-03-19T02:09:34.972Z,101449.50
2023-03-19T02:10:39.486Z,101451.78
2023-03-19T02:11:43.225Z,101453.63
2023-03-19T02:12:47.055Z,101447.22
2023-03-19T02:13:49.488Z,101457.41
2023-03-19T02:14:53.125Z,101456.06
2023-03-19T02:15:55.950Z,101455.13
2023-03-19T02:16:59.694Z,101451.16
2023-03-19T02:18:04.015Z,101451.94
2023-03-19T02:19:12.255Z,101452.50
2023-03-19T02:20:22.143Z,101460.31
2023-03-19T02:21:26.448Z,101464.44
2023-03-19T02:22:32.050Z,101463.81
2023-03-19T02:23:39.929Z,101464.53
2023-03-19T02:24:49.304Z,101461.09
2023-03-19T02:26:01.816Z,101459.19
2023-03-19T02:27:06.930Z,101465.44
2023-03-19T02:28:11.295Z,101459.09
2023-03-19T02:29:14.117Z,101454.81
2023-03-19T02:30:24.462Z,101465.16
2023-03-19T02:31:28.187Z,101458.97
2023-03-19T02:32:31.959Z,101460.63
2023-03-19T02:33:35.675Z,101463.97
2023-03-19T02:34:41.580Z,101467.78
2023-03-19T02:35:46.978Z,101466.53
2023-03-19T02:36:56.247Z,101475.63
2023-03-19T02:37:59.071Z,101469.63
2023-03-19T02:39:06.283Z,101476.25
2023-03-19T02:40:13.361Z,101467.81
2023-03-19T02:41:19.015Z,101468.28
2023-03-19T02:42:23.054Z,101461.44
2023-03-19T02:43:27.222Z,101468.59
2023-03-19T02:44:29.771Z,101461.19
2023-03-19T02:45:33.624Z,101458.84
2023-03-19T02:46:36.499Z,101463.59
2023-03-19T02:47:41.307Z,101461.34
2023-03-19T02:48:44.190Z,101462.81
2023-03-19T02:49:47.852Z,101466.28
2023-03-19T02:50:50.578Z,101462.50
2023-03-19T02:51:54.498Z,101461.41
2023-03-19T02:52:58.659Z,101461.09
2023-03-19T02:54:01.214Z,101460.09
2023-03-19T02:55:05.065Z,101464.28
2023-03-19T02:56:08.155Z,101463.56
2023-03-19T02:57:13.998Z,101457.59
2023-03-19T02:58:17.881Z,101458.59
2023-03-19T02:59:20.367Z,101464.50
2023-03-19T03:00:24.136Z,101455.44
2023-03-19T03:01:27.173Z,101466.22
2023-03-19T03:02:31.181Z,101451.81
2023-03-19T03:03:33.694Z,101458.59
2023-03-19T03:04:38.579Z,101454.28
2023-03-19T03:05:41.240Z,101454.66
2023-03-19T03:06:45.129Z,101452.69
2023-03-19T03:07:48.003Z,101452.75
2023-03-19T03:08:52.306Z,101451.56
2023-03-19T03:09:54.851Z,101446.72
2023-03-19T03:10:58.381Z,101450.28
2023-03-19T03:12:01.075Z,101452.91
2023-03-19T03:13:07.405Z,101440.38
2023-03-19T03:14:10.038Z,101450.44
2023-03-19T03:15:14.479Z,101445.31
2023-03-19T03:16:17.650Z,101434.00
2023-03-19T03:17:21.154Z,101448.13
2023-03-19T03:18:23.471Z,101450.34
2023-03-19T03:19:27.345Z,101455.03
2023-03-19T03:20:30.802Z,101448.59
2023-03-19T03:21:35.668Z,101450.72
2023-03-19T03:22:39.441Z,101451.16
2023-03-19T03:23:43.307Z,101456.72
2023-03-19T03:24:45.734Z,101454.72
2023-03-19T03:25:51.501Z,101462.50
2023-03-19T03:26:54.040Z,101466.22
2023-03-19T03:27:57.533Z,101458.16
2023-03-19T03:29:01.444Z,101461.41
2023-03-19T03:30:05.394Z,101464.69
2023-03-19T03:31:09.080Z,101463.13
2023-03-19T03:32:12.652Z,101467.47
2023-03-19T03:33:15.733Z,101460.81
2023-03-19T03:34:19.434Z,101466.78
2023-03-19T03:35:22.830Z,101466.59
2023-03-19T03:36:27.726Z,101469.41
2023-03-19T03:37:30.635Z,101471.41
2023-03-19T03:38:34.780Z,101477.06
2023-03-19T03:39:37.851Z,101476.44
2023-03-19T03:40:41.940Z,101476.19
2023-03-19T03:41:44.329Z,101475.34
2023-03-19T03:42:47.914Z,101476.81
2023-03-19T03:43:50.330Z,101477.31
2023-03-19T03:44:55.486Z,101473.56
2023-03-19T03:45:58.415Z,101478.47
2023-03-19T03:47:02.058Z,101472.19
2023-03-19T03:48:04.872Z,101480.38
2023-03-19T03:49:08.281Z,101479.81
2023-03-19T03:50:11.775Z,101484.81
2023-03-19T03:51:15.315Z,101480.13
2023-03-19T03:52:17.961Z,101483.59
2023-03-19T03:53:21.829Z,101484.63
2023-03-19T03:54:24.233Z,101488.28
2023-03-19T03:55:28.425Z,101486.84
2023-03-19T03:56:31.671Z,101488.53
2023-03-19T03:57:35.256Z,101490.75
2023-03-19T03:58:38.224Z,101492.34
2023-03-19T03:59:42.081Z,101488.50
2023-03-19T04:00:46.673Z,101485.34
2023-03-19T04:01:50.119Z,101483.44
2023-03-19T04:02:52.817Z,101484.63
2023-03-19T04:03:56.887Z,101485.09
2023-03-19T04:04:59.405Z,101486.59
2023-03-19T04:06:02.928Z,101478.19
2023-03-19T04:07:05.431Z,101483.84
2023-03-19T04:08:09.683Z,101478.66
2023-03-19T04:09:12.674Z,101481.19
2023-03-19T04:10:16.794Z,101481.34
2023-03-19T04:11:19.324Z,101476.88
2023-03-19T04:12:23.320Z,101473.38
2023-03-19T04:13:25.900Z,101468.97
2023-03-19T04:14:29.433Z,101471.59
2023-03-19T04:15:31.907Z,101474.78
2023-03-19T04:16:36.984Z,101484.69
2023-03-19T04:17:40.585Z,101475.28
2023-03-19T04:18:44.176Z,101478.00
2023-03-19T04:19:47.200Z,101481.91
2023-03-19T04:20:50.834Z,101483.91
2023-03-19T04:21:53.688Z,101479.59
2023-03-19T04:22:57.393Z,101480.41
2023-03-19T04:24:00.211Z,101482.78
2023-03-19T04:25:05.103Z,101476.41
2023-03-19T04:26:07.840Z,101473.44
2023-03-19T04:27:11.291Z,101473.41
2023-03-19T04:28:13.753Z,101481.13
2023-03-19T04:29:18.846Z,101475.03
2023-03-19T04:30:21.295Z,101480.59
2023-03-19T04:31:24.878Z,101483.00
2023-03-19T04:32:28.731Z,101476.50
2023-03-19T04:33:32.882Z,101483.84
2023-03-19T04:34:35.241Z,101480.09
2023-03-19T04:35:38.892Z,101478.44
2023-03-19T04:36:42.649Z,101486.13
2023-03-19T04:37:48.803Z,101481.53
2023-03-19T04:38:52.798Z,101483.78
2023-03-19T04:39:55.626Z,101486.84
2023-03-19T04:40:59.348Z,101493.47
2023-03-19T04:42:01.930Z,101498.84
2023-03-19T04:43:05.889Z,101494.81
2023-03-19T04:44:08.419Z,101497.28
2023-03-19T04:45:12.483Z,101492.34
2023-03-19T04:46:14.997Z,101499.34
2023-03-19T04:47:18.866Z,101500.22
2023-03-19T04:48:22.707Z,101501.56
2023-03-19T04:49:26.150Z,101500.91
2023-03-19T04:50:29.328Z,101493.94
2023-03-19T04:51:33.378Z,101506.34
2023-03-19T04:52:37.485Z,101502.38
2023-03-19T04:53:41.208Z,101503.97
2023-03-19T04:54:43.610Z,101507.41
2023-03-19T04:55:47.373Z,101507.56
2023-03-19T04:56:49.748Z,101513.91
2023-03-19T04:57:53.129Z,101518.25
2023-03-19T04:58:55.678Z,101511.53
2023-03-19T04:59:59.205Z,101512.88
2023-03-19T05:01:01.926Z,101518.81
2023-03-19T05:02:06.283Z,101514.25
2023-03-19T05:03:09.018Z,101517.78
2023-03-19T05:04:14.314Z,101519.59
2023-03-19T05:05:17.340Z,101516.72
2023-03-19T05:06:21.531Z,101517.53
2023-03-19T05:07:23.906Z,101522.22
2023-03-19T05:08:27.657Z,101521.31
2023-03-19T05:09:31.073Z,101522.72
2023-03-19T05:10:35.848Z,101521.84
2023-03-19T05:11:38.442Z,101525.06
2023-03-19T05:12:42.430Z,101522.03
2023-03-19T05:13:45.124Z,101526.19
2023-03-19T05:14:48.670Z,101518.28
2023-03-19T05:15:54.194Z,101519.41
2023-03-19T05:16:57.709Z,101525.53
2023-03-19T05:18:00.761Z,101525.59
2023-03-19T05:19:04.482Z,101529.94
2023-03-19T05:20:11.352Z,101529.94
2023-03-19T05:21:16.030Z,101531.16
2023-03-19T05:22:18.525Z,101530.50
2023-03-19T05:23:23.093Z,101538.78
2023-03-19T05:24:25.902Z,101539.38
2023-03-19T05:25:30.347Z,101540.41
2023-03-19T05:26:33.365Z,101534.38
2023-03-19T05:27:37.552Z,101542.34
2023-03-19T05:28:40.345Z,101546.47
2023-03-19T05:29:44.031Z,101542.19
2023-03-19T05:30:46.928Z,101550.28
2023-03-19T05:31:51.460Z,101554.84
2023-03-19T05:32:54.833Z,101547.75
2023-03-19T05:33:58.680Z,101547.31
2023-03-19T05:35:01.214Z,101549.00
2023-03-19T05:36:08.065Z,101551.84
2023-03-19T05:37:10.804Z,101550.31
2023-03-19T05:38:14.700Z,101560.72
2023-03-19T05:39:17.193Z,101558.53
2023-03-19T05:40:20.904Z,101563.25
2023-03-19T05:41:23.687Z,101566.72
2023-03-19T05:42:27.379Z,101559.84
2023-03-19T05:43:29.962Z,101564.75
2023-03-19T05:44:33.693Z,101569.56
2023-03-19T05:45:36.404Z,101575.59
2023-03-19T05:46:40.466Z,101572.72
2023-03-19T05:47:45.072Z,101579.81
2023-03-19T05:48:47.746Z,101577.19
2023-03-19T05:49:52.261Z,101576.03
2023-03-19T05:50:54.654Z,101574.00
2023-03-19T05:52:00.289Z,101577.91
2023-03-19T05:53:04.361Z,101582.78
2023-03-19T05:54:07.226Z,101583.44
2023-03-19T05:55:11.347Z,101579.94
2023-03-19T05:56:13.801Z,101580.94
2023-03-19T05:57:18.571Z,101582.97
2023-03-19T05:58:21.231Z,101583.41
2023-03-19T05:59:24.679Z,101589.00
2023-03-19T06:00:27.383Z,101586.34
2023-03-19T06:01:31.856Z,101590.91
2023-03-19T06:02:35.027Z,101593.66
2023-03-19T06:03:38.993Z,101592.19
2023-03-19T06:04:41.441Z,101592.59
2023-03-19T06:05:45.048Z,101589.78
2023-03-19T06:06:47.707Z,101594.88
2023-03-19T06:07:52.866Z,101596.59
2023-03-19T06:08:55.376Z,101601.63
2023-03-19T06:09:58.787Z,101607.31
2023-03-19T06:11:02.425Z,101607.22
2023-03-19T06:12:04.940Z,101607.88
2023-03-19T06:13:08.902Z,101611.66
2023-03-19T06:14:11.751Z,101616.09
2023-03-19T06:15:15.254Z,101618.31
2023-03-19T06:16:17.684Z,101621.47
2023-03-19T06:17:21.145Z,101618.38
2023-03-19T06:18:23.800Z,101620.66
2023-03-19T06:19:27.569Z,101631.06
2023-03-19T06:20:30.234Z,101629.03
2023-03-19T06:21:33.685Z,101635.88
2023-03-19T06:22:36.357Z,101638.38
2023-03-19T06:23:42.033Z,101640.88
2023-03-19T06:24:44.879Z,101633.59
2023-03-19T06:25:48.588Z,101638.84
2023-03-19T06:26:51.076Z,101638.00
2023-03-19T06:27:54.805Z,101635.25
2023-03-19T06:28:57.697Z,101634.50
2023-03-19T06:30:01.336Z,101640.81
2023-03-19T06:31:04.067Z,101643.38
2023-03-19T06:32:08.062Z,101644.63
2023-03-19T06:33:10.642Z,101652.97
2023-03-19T06:34:14.235Z,101654.47
2023-03-19T06:35:16.975Z,101645.53
2023-03-19T06:36:20.589Z,101658.22
2023-03-19T06:37:23.053Z,101656.50
2023-03-19T06:38:26.792Z,101659.38
2023-03-19T06:39:30.782Z,101664.41
2023-03-19T06:40:34.518Z,101662.56
2023-03-19T06:41:37.463Z,101662.91
2023-03-19T06:42:40.928Z,101663.94
2023-03-19T06:43:43.892Z,101670.13
2023-03-19T06:44:47.740Z,101664.28
2023-03-19T06:45:50.663Z,101672.84
2023-03-19T06:46:54.394Z,101677.03
2023-03-19T06:47:58.129Z,101671.81
2023-03-19T06:49:01.722Z,101671.91
2023-03-19T06:50:04.725Z,101682.31
2023-03-19T06:51:08.512Z,101681.75
2023-03-19T06:52:11.414Z,101680.84
2023-03-19T06:53:15.608Z,101678.69
2023-03-19T06:54:18.328Z,101683.47
2023-03-19T06:55:23.219Z,101689.72
2023-03-19T06:56:26.255Z,101684.38
2023-03-19T06:57:29.769Z,101687.69
2023-03-19T06:58:32.412Z,101690.41
2023-03-19T06:59:36.186Z,101688.81
2023-03-19T07:00:38.978Z,101685.75
2023-03-19T07:01:42.923Z,101683.56
2023-03-19T07:02:45.422Z,101685.72
2023-03-19T07:03:48.822Z,101693.03
2023-03-19T07:04:51.231Z,101697.38
2023-03-19T07:05:54.958Z,101693.81
2023-03-19T07:06:57.337Z,101697.72
2023-03-19T07:08:00.813Z,101702.84
2023-03-19T07:09:04.402Z,101697.03
2023-03-19T07:10:08.924Z,101706.63
2023-03-19T07:11:15.903Z,101702.63
2023-03-19T07:12:19.453Z,101707.75
2023-03-19T07:13:21.808Z,101706.72
2023-03-19T07:14:25.587Z,101710.94
2023-03-19T07:15:27.957Z,101716.88
2023-03-19T07:16:31.657Z,101715.06
2023-03-19T07:17:34.027Z,101716.75
2023-03-19T07:18:37.456Z,101719.34
2023-03-19T07:19:39.875Z,101718.03
2023-03-19T07:20:43.397Z,101722.69
2023-03-19T07:21:46.945Z,101723.38
2023-03-19T07:22:52.424Z,101730.94
2023-03-19T07:23:54.786Z,101724.53
2023-03-19T07:24:58.108Z,101727.75
2023-03-19T07:26:00.464Z,101727.06
2023-03-19T07:27:05.920Z,101729.53
2023-03-19T07:28:08.276Z,101726.69
2023-03-19T07:29:12.399Z,101726.56
2023-03-19T07:30:15.806Z,101734.72
2023-03-19T07:31:19.223Z,101738.94
2023-03-19T07:32:22.075Z,101734.72
2023-03-19T07:33:25.599Z,101734.13
2023-03-19T07:34:28.034Z,101738.47
2023-03-19T07:35:32.217Z,101741.00
2023-03-19T07:36:34.911Z,101737.56
2023-03-19T07:37:39.067Z,101740.06
2023-03-19T07:38:41.745Z,101737.34
2023-03-19T07:39:45.385Z,101744.75
2023-03-19T07:41:01.544Z,101738.56
2023-03-19T07:42:07.705Z,101748.06
2023-03-19T07:43:10.075Z,101745.91
2023-03-19T07:44:13.520Z,101750.94
2023-03-19T07:45:15.982Z,101747.84
2023-03-19T07:46:19.580Z,101744.09
2023-03-19T07:47:28.938Z,101752.97
2023-03-19T07:48:33.474Z,101752.28
2023-03-19T07:49:36.106Z,101753.66
2023-03-19T07:50:39.436Z,101751.16
2023-03-19T07:51:41.957Z,101763.84
2023-03-19T07:52:47.271Z,101756.50
2023-03-19T07:53:49.639Z,101760.97
2023-03-19T07:54:53.115Z,101761.66
2023-03-19T07:55:56.652Z,101766.78
2023-03-19T07:56:59.681Z,101765.78
2023-03-19T07:58:06.241Z,101767.38
2023-03-19T07:59:09.412Z,101768.94
2023-03-19T08:00:13.655Z,101766.47
2023-03-19T08:01:16.472Z,101764.50
2023-03-19T08:02:22.779Z,101774.44
2023-03-19T08:03:26.749Z,101772.50
2023-03-19T08:04:29.313Z,101777.63
2023-03-19T08:05:32.782Z,101775.13
2023-03-19T08:06:35.324Z,101774.09
2023-03-19T08:07:38.806Z,101785.88
2023-03-19T08:08:42.200Z,101779.47
2023-03-19T08:09:44.618Z,101772.06
2023-03-19T08:10:50.956Z,101774.09
2023-03-19T08:11:54.621Z,101784.09
2023-03-19T08:12:57.466Z,101778.41
2023-03-19T08:14:02.670Z,101768.75
2023-03-19T08:15:06.211Z,101780.22
2023-03-19T08:16:09.968Z,101785.50
2023-03-19T08:17:12.743Z,101784.59
2023-03-19T08:18:16.175Z,101789.16
2023-03-19T08:19:18.942Z,101786.56
2023-03-19T08:20:22.326Z,101788.13
2023-03-19T08:21:25.906Z,101786.56
2023-03-19T08:22:28.405Z,101787.44
2023-03-19T08:23:32.403Z,101784.78
2023-03-19T08:24:34.880Z,101793.09
2023-03-19T08:25:38.426Z,101793.00
2023-03-19T08:26:40.841Z,101793.81
2023-03-19T08:27:44.299Z,101793.75
2023-03-19T08:28:47.074Z,101803.34
2023-03-19T08:29:52.081Z,101796.47
2023-03-19T08:30:56.044Z,101791.94
2023-03-19T08:32:01.082Z,101799.06
2023-03-19T08:33:03.725Z,101799.44
2023-03-19T08:34:07.429Z,101798.06
2023-03-19T08:35:11.894Z,101801.09
2023-03-19T08:36:16.383Z,101801.09
2023-03-19T08:37:19.146Z,101805.44
2023-03-19T08:38:22.643Z,101806.03
2023-03-19T08:39:25.417Z,101805.50
2023-03-19T08:40:29.104Z,101805.63
2023-03-19T08:41:32.835Z,101805.56
2023-03-19T08:42:35.528Z,101809.16
2023-03-19T08:43:39.854Z,101806.72
2023-03-19T08:44:43.528Z,101804.81
2023-03-19T08:45:48.788Z,101808.25
2023-03-19T08:46:51.424Z,101803.72
2023-03-19T08:47:54.964Z,101806.34
2023-03-19T08:48:58.657Z,101811.13
2023-03-19T08:50:01.180Z,101809.44
2023-03-19T08:51:05.583Z,101810.06
2023-03-19T08:52:08.810Z,101805.88
2023-03-19T08:53:12.408Z,101801.56
2023-03-19T08:54:14.850Z,101811.63
2023-03-19T08:55:18.545Z,101814.38
2023-03-19T08:56:21.753Z,101819.09
2023-03-19T08:57:25.406Z,101808.72
2023-03-19T08:58:28.681Z,101817.72
2023-03-19T08:59:34.171Z,101821.50
2023-03-19T09:00:36.878Z,101823.31
2023-03-19T09:01:42.327Z,101819.91
2023-03-19T09:02:44.672Z,101820.69
2023-03-19T09:03:48.165Z,101814.69
2023-03-19T09:04:50.728Z,101819.19
2023-03-19T09:05:54.925Z,101824.66
2023-03-19T09:06:58.326Z,101818.97
2023-03-19T09:08:02.117Z,101829.50
2023-03-19T09:09:06.610Z,101826.09
2023-03-19T09:10:09.743Z,101827.81
2023-03-19T09:11:14.859Z,101818.97
2023-03-19T09:12:19.430Z,101828.25
2023-03-19T09:13:23.299Z,101822.78
2023-03-19T09:14:25.910Z,101824.28
2023-03-19T09:15:30.213Z,101832.25
2023-03-19T09:16:32.623Z,101825.53
2023-03-19T09:17:37.693Z,101825.88
2023-03-19T09:18:40.357Z,101828.91
2023-03-19T09:19:43.857Z,101825.31
2023-03-19T09:20:46.180Z,101825.97
2023-03-19T09:21:50.490Z,101827.13
2023-03-19T09:22:52.952Z,101817.09
2023-03-19T09:23:56.527Z,101818.03
2023-03-19T09:24:59.032Z,101820.22
2023-03-19T09:26:02.436Z,101821.78
2023-03-19T09:27:04.776Z,101826.47
2023-03-19T09:28:08.783Z,101821.03
2023-03-19T09:29:11.158Z,101826.94
2023-03-19T09:30:15.412Z,101823.63
2023-03-19T09:31:18.145Z,101828.97
2023-03-19T09:32:22.272Z,101825.53
2023-03-19T09:33:26.387Z,101826.16
2023-03-19T09:34:29.932Z,101823.25
2023-03-19T09:35:33.475Z,101824.88
2023-03-19T09:36:38.048Z,101831.75
2023-03-19T09:37:40.805Z,101823.66
2023-03-19T09:38:44.394Z,101822.66
2023-03-19T09:39:47.985Z,101826.31
2023-03-19T09:41:03.134Z,101829.56
2023-03-19T09:42:25.846Z,101830.41
2023-03-19T09:43:46.251Z,101826.69
2023-03-19T09:44:50.434Z,101823.19
2023-03-19T09:45:53.715Z,101824.94
2023-03-19T09:47:06.224Z,101825.38
2023-03-19T09:48:22.332Z,101824.94
2023-03-19T09:49:29.884Z,101827.69
2023-03-19T09:50:34.980Z,101830.06
2023-03-19T09:51:46.293Z,101833.34
2023-03-19T09:52:52.963Z,101830.38
2023-03-19T09:54:00.098Z,101825.94
2023-03-19T09:55:12.835Z,101825.72
2023-03-19T09:56:16.940Z,101835.56
2023-03-19T09:57:21.294Z,101827.38
2023-03-19T09:58:30.990Z,101829.53
2023-03-19T09:59:34.527Z,101835.91
2023-03-19T10:00:38.594Z,101824.09
2023-03-19T10:01:49.877Z,101835.13
2023-03-19T10:03:02.596Z,101833.94
2023-03-19T10:04:38.907Z,101834.75
2023-03-19T10:05:52.999Z,101833.50
2023-03-19T10:07:07.995Z,101840.34
2023-03-19T10:08:39.677Z,101833.00
2023-03-19T10:09:55.040Z,101834.22
2023-03-19T10:11:10.568Z,101843.09
2023-03-19T10:12:25.246Z,101838.41
2023-03-19T10:13:40.053Z,101842.47
2023-03-19T10:14:55.296Z,101840.72
2023-03-19T10:16:03.796Z,101841.31
2023-03-19T10:17:14.190Z,101835.19
2023-03-19T10:18:21.178Z,101837.81
2023-03-19T10:19:39.088Z,101844.50
2023-03-19T10:20:51.766Z,101838.88
2023-03-19T10:21:58.794Z,101839.84
2023-03-19T10:23:13.753Z,101845.94
2023-03-19T10:24:23.431Z,101838.00
2023-03-19T10:25:30.143Z,101842.41
2023-03-19T10:26:35.919Z,101849.06
2023-03-19T10:27:38.921Z,101846.34
2023-03-19T10:28:45.299Z,101835.81
2023-03-19T10:29:47.991Z,101837.63
2023-03-19T10:31:03.300Z,101833.63
2023-03-19T10:32:18.720Z,101838.13
2023-03-19T10:33:24.465Z,101832.47
2023-03-19T10:34:35.246Z,101851.84
2023-03-19T10:35:43.691Z,101845.63
2023-03-19T10:36:48.990Z,101847.19
2023-03-19T10:37:51.393Z,101839.19
2023-03-19T10:38:56.236Z,101846.94
2023-03-19T10:40:01.696Z,101843.84
2023-03-19T10:41:21.453Z,101844.97
2023-03-19T10:42:42.857Z,101839.56
2023-03-19T10:43:52.081Z,101846.72
2023-03-19T10:45:01.769Z,101841.53
2023-03-19T10:46:05.487Z,101837.53
2023-03-19T10:47:12.433Z,101845.03
2023-03-19T10:48:19.293Z,101844.59
2023-03-19T10:49:22.050Z,101838.75
2023-03-19T10:50:32.778Z,101848.09
2023-03-19T10:51:38.924Z,101838.56
2023-03-19T10:52:44.958Z,101837.59
2023-03-19T10:53:48.707Z,101845.81
2023-03-19T10:54:57.437Z,101835.72
2023-03-19T10:56:05.134Z,101837.84
2023-03-19T10:57:23.909Z,101838.06
2023-03-19T10:58:28.306Z,101837.91
2023-03-19T10:59:38.434Z,101843.94
2023-03-19T11:00:42.204Z,101838.31
2023-03-19T11:01:44.725Z,101842.59
2023-03-19T11:02:51.724Z,101843.19
2023-03-19T11:03:57.472Z,101838.94
2023-03-19T11:05:24.565Z,101839.94
2023-03-19T11:06:33.084Z,101838.44
2023-03-19T11:07:37.564Z,101833.69
2023-03-19T11:08:42.553Z,101846.28
2023-03-19T11:09:49.144Z,101830.78
2023-03-19T11:10:51.850Z,101833.09
2023-03-19T11:12:00.831Z,101837.84
2023-03-19T11:13:06.644Z,101828.03
2023-03-19T11:14:15.961Z,101839.19
2023-03-19T11:15:22.549Z,101828.59
2023-03-19T11:16:26.831Z,101842.16
2023-03-19T11:17:39.885Z,101840.25
2023-03-19T11:18:42.418Z,101848.25
2023-03-19T11:19:53.879Z,101839.25
2023-03-19T11:20:59.754Z,101841.91
2023-03-19T11:22:15.057Z,101839.19
2023-03-19T11:23:21.422Z,101838.44
2023-03-19T11:24:27.212Z,101842.31
2023-03-19T11:25:36.195Z,101830.25
2023-03-19T11:26:39.524Z,101838.19
2023-03-19T11:27:43.846Z,101836.84
2023-03-19T11:28:51.793Z,101838.94
2023-03-19T11:29:55.463Z,101839.72
2023-03-19T11:31:06.719Z,101830.25
2023-03-19T11:32:22.383Z,101821.75
2023-03-19T11:33:58.612Z,101829.72
2023-03-19T11:35:07.650Z,101822.69
2023-03-19T11:36:15.265Z,101826.16
2023-03-19T11:37:28.690Z,101823.81
2023-03-19T11:38:42.891Z,101832.28
2023-03-19T11:39:57.054Z,101826.41
2023-03-19T11:41:09.950Z,101832.72
2023-03-19T11:42:41.329Z,101826.19
2023-03-19T11:43:58.294Z,101836.28
2023-03-19T11:45:14.258Z,101831.81
2023-03-19T11:46:25.837Z,101835.75
2023-03-19T11:47:36.038Z,101833.88
2023-03-19T11:48:51.601Z,101827.56
2023-03-19T11:50:18.486Z,101837.91
2023-03-19T11:51:27.454Z,101836.81
2023-03-19T11:52:37.597Z,101840.03
2023-03-19T11:53:54.290Z,101832.00
2023-03-19T11:55:15.006Z,101839.53
2023-03-19T11:56:27.293Z,101832.06
2023-03-19T11:57:47.504Z,101837.66
2023-03-19T11:59:10.148Z,101829.19
2023-03-19T12:00:26.599Z,101829.19
2023-03-19T12:01:54.593Z,101827.84
2023-03-19T12:03:19.941Z,101824.69
2023-03-19T12:04:47.719Z,101824.41
2023-03-19T12:05:58.147Z,101816.44
2023-03-19T12:07:10.761Z,101817.78
2023-03-19T12:08:27.884Z,101813.53
2023-03-19T12:09:40.354Z,101820.69
2023-03-19T12:11:00.312Z,101816.47
2023-03-19T12:12:14.642Z,101825.72
2023-03-19T12:13:29.612Z,101815.66
2023-03-19T12:14:46.533Z,101817.75
2023-03-19T12:16:00.057Z,101823.28
2023-03-19T12:17:26.437Z,101816.47
2023-03-19T12:19:01.395Z,101820.13
2023-03-19T12:20:25.863Z,101810.56
2023-03-19T12:21:34.436Z,101805.59
2023-03-19T12:22:52.802Z,101812.97
2023-03-19T12:24:05.200Z,101804.81
2023-03-19T12:25:23.871Z,101806.91
2023-03-19T12:26:41.139Z,101811.44